»·PEaware :: DAL228 KLAS-KSAN

DAL228 :: KLAS-KSAN

FLIGHT INFORMATION

Flight Status: Arrived
Operator:
Delta Air Lines
More flights by this operator :: More flights under this callsign
Pilot: Alex S. (7186)
Aircraft: BOEING 757-200
(B752)
More flights by this aircraft type
Origin: KLAS McCarran Intl
United States
Destination: KSAN San Diego Intl-Lindbergh
United States
More flights between these airports :: More routes between these airports
Route: BOACH8 LVELL LUCKI1
File this flight plan on PilotEdge
Remarks: PBN / A1B3B4B5C4D4O4 DOF / 180512 REG / N706TW OPR / DAL PER / C RMK / TCAS SIMBRIEF
Altitude:
(Current/Filed)
26,000ft
Speed:
(Current/Filed)
463kts
Departed: 11-May-18 08:46 PM
Arrived: 11-May-18 09:37 PM
Distance/Time
Traveled:
225nm/0:51
Distance/Time
To Go:
Arrived

Flight Plot

Page will automatically refresh every two minutes.

Flight plan parsing failed; only flown route is shown


Map Options




Map Legend


Flown Route
Filed Route
Departure Airport
Arrival Airport
Navaid (VOR, NDB)
Fix

Horizontal Profiles

Position Reports

Time Latitude Longitude Heading Altitude Ground
Speed
11-May-18 20:12 36.079875 -115.140540 59 2123ft 0kts
11-May-18 20:13 36.079875 -115.140540 59 2123ft 0kts
11-May-18 20:14 36.079875 -115.140540 59 2123ft 0kts
11-May-18 20:15 36.079875 -115.140540 59 2123ft 0kts
11-May-18 20:16 36.079875 -115.140540 59 2123ft 0kts
11-May-18 20:17 36.079875 -115.140540 59 2123ft 0kts
11-May-18 20:18 36.079875 -115.140540 59 2123ft 0kts
11-May-18 20:19 36.079875 -115.140540 59 2123ft 0kts
11-May-18 20:20 36.079875 -115.140540 59 2123ft 0kts
11-May-18 20:21 36.079875 -115.140540 59 2123ft 0kts
11-May-18 20:22 36.079875 -115.140540 59 2123ft 0kts
11-May-18 20:23 36.079875 -115.140540 59 2123ft 0kts
11-May-18 20:24 36.079875 -115.140540 59 2122ft 0kts
11-May-18 20:25 36.079875 -115.140540 59 2122ft 0kts
11-May-18 20:26 36.079875 -115.140540 59 2122ft 0kts
11-May-18 20:27 36.079875 -115.140540 59 2122ft 0kts
11-May-18 20:28 36.079875 -115.140540 59 2122ft 0kts
11-May-18 20:29 36.079875 -115.140540 59 2122ft 0kts
11-May-18 20:30 36.079875 -115.140540 59 2122ft 0kts
11-May-18 20:31 36.079875 -115.140540 59 2122ft 0kts
11-May-18 20:32 36.079875 -115.140540 59 2122ft 0kts
11-May-18 20:33 36.079875 -115.140540 59 2122ft 0kts
11-May-18 20:34 36.079832 -115.140631 59 2122ft 2kts
11-May-18 20:35 36.079835 -115.141346 127 2122ft 2kts
11-May-18 20:36 36.080253 -115.141586 180 2122ft 0kts
11-May-18 20:37 36.080253 -115.141586 180 2122ft 0kts
11-May-18 20:38 36.080253 -115.141586 180 2122ft 0kts
11-May-18 20:39 36.080222 -115.141586 180 2122ft 1kts
11-May-18 20:40 36.078937 -115.141586 179 2123ft 1kts
11-May-18 20:41 36.078245 -115.140234 87 2123ft 9kts
11-May-18 20:42 36.078258 -115.137608 90 2123ft 14kts
11-May-18 20:43 36.078251 -115.131972 89 2122ft 18kts
11-May-18 20:44 36.078270 -115.126277 90 2123ft 15kts
11-May-18 20:45 36.077784 -115.121953 129 2123ft 11kts
11-May-18 20:46 36.076387 -115.126948 270 2123ft 89kts
11-May-18 20:47 36.076730 -115.180369 267 4173ft 176kts
11-May-18 20:48 36.074527 -115.242985 243 6432ft 210kts
11-May-18 20:49 36.020302 -115.278366 204 8776ft 263kts
11-May-18 20:50 35.945330 -115.304245 190 11711ft 306kts
11-May-18 20:51 35.851135 -115.313797 180 13715ft 372kts
11-May-18 20:52 35.765696 -115.304382 180 16119ft 379kts
11-May-18 20:53 35.661125 -115.294538 188 18775ft 389kts
11-May-18 20:54 35.552226 -115.299458 189 21251ft 405kts
11-May-18 20:55 35.442167 -115.303819 189 24048ft 402kts
11-May-18 20:56 35.333264 -115.308136 189 25588ft 398kts
11-May-18 20:57 35.224460 -115.312448 189 25583ft 394kts
11-May-18 20:58 35.116214 -115.316696 189 25583ft 394kts
11-May-18 20:59 35.007535 -115.320950 189 25610ft 394kts
11-May-18 21:00 34.899328 -115.325175 189 25609ft 394kts
11-May-18 21:01 34.796551 -115.329885 194 25639ft 390kts
11-May-18 21:02 34.697151 -115.367807 205 25640ft 379kts
11-May-18 21:03 34.598887 -115.410468 205 25638ft 379kts
11-May-18 21:04 34.500544 -115.453318 205 25729ft 378kts
11-May-18 21:05 34.401694 -115.496315 205 25819ft 378kts
11-May-18 21:06 34.305512 -115.544802 216 25824ft 371kts
11-May-18 21:07 34.217185 -115.609233 213 25819ft 376kts
11-May-18 21:08 34.122480 -115.655893 207 25824ft 379kts
11-May-18 21:09 34.028426 -115.700905 206 25828ft 380kts
11-May-18 21:10 33.930184 -115.747199 206 25817ft 383kts
11-May-18 21:11 33.835280 -115.793560 207 25723ft 384kts
11-May-18 21:12 33.779548 -115.820839 207 25726ft 383kts
11-May-18 21:13 33.779548 -115.820839 207 25726ft 383kts
11-May-18 21:14 33.698518 -115.860345 205 24541ft 391kts
11-May-18 21:15 33.597767 -115.906192 206 24575ft 392kts
11-May-18 21:16 33.505055 -115.967971 230 24316ft 383kts
11-May-18 21:17 33.442665 -116.070110 237 22065ft 381kts
11-May-18 21:18 33.383367 -116.171370 236 20044ft 365kts
11-May-18 21:19 33.318043 -116.260552 211 18349ft 369kts
11-May-18 21:20 33.226974 -116.314600 209 16256ft 360kts
11-May-18 21:21 33.140272 -116.365385 210 14317ft 345kts
11-May-18 21:22 33.057297 -116.413824 210 12694ft 335kts
11-May-18 21:23 32.981761 -116.468391 224 11814ft 302kts
11-May-18 21:24 32.919901 -116.530436 224 10378ft 290kts
11-May-18 21:25 32.864256 -116.586440 225 9751ft 253kts
11-May-18 21:26 32.811484 -116.639601 225 8763ft 248kts
11-May-18 21:27 32.771530 -116.684151 241 7956ft 240kts
11-May-18 21:28 32.743584 -116.742534 241 7073ft 237kts
11-May-18 21:29 32.711690 -116.809550 240 6108ft 238kts
11-May-18 21:30 32.689597 -116.875945 247 5643ft 205kts
11-May-18 21:31 32.671681 -116.938661 262 4470ft 219kts
11-May-18 21:32 32.686586 -116.998494 282 3839ft 201kts
11-May-18 21:33 32.701756 -117.058982 281 2713ft 191kts
11-May-18 21:34 32.714341 -117.110647 281 1853ft 168kts
11-May-18 21:35 32.725745 -117.156904 280 559ft 129kts
11-May-18 21:36 32.734333 -117.192723 286 25ft 59kts
11-May-18 21:37 32.734901 -117.199073 260 24ft 2kts
11-May-18 21:38 32.734973 -117.199757 285 24ft 9kts
11-May-18 21:39 32.734916 -117.205275 222 22ft 12kts
11-May-18 21:40 32.733357 -117.204902 81 21ft 6kts
11-May-18 21:41 32.733379 -117.204684 81 21ft 0kts

Navigation Log

Ident Type
Flight plan parsing failed, navigation log unavailable